Time;durP1;ratioP1;P1;durP2;ratioP2;P2;SDS_P1;SDS_P2;PMS_P1;PMS_P2;Temp;Humidity;BMP_temperature;BMP_pressure;BME280_temperature;BME280_humidity;BME280_pressure;Samples;Min_cycle;Max_cycle;Signal;HPM_P1;HPM_P2
2022/10/08 00:01:15;;;;;;;22.75;17.80;;;;;;;13.53;85.70;100813.16;1749040;82;21032;-75
2022/10/08 00:03:46;;;;;;;23.45;17.17;;;;;;;13.53;85.98;100805.26;1748129;82;21490;-76
2022/10/08 00:06:20;;;;;;;23.18;18.05;;;;;;;13.56;86.29;100807.76;1746767;82;21549;-76
2022/10/08 00:09:02;;;;;;;26.60;17.25;;;;;;;13.56;86.45;100805.98;1740532;82;21139;-75
2022/10/08 00:11:34;;;;;;;27.15;20.60;;;;;;;13.60;86.67;100797.47;1746269;82;20995;-75
2022/10/08 00:14:02;;;;;;;26.62;18.92;;;;;;;13.64;86.83;100795.12;1748242;82;20988;-75
2022/10/08 00:16:34;;;;;;;23.87;19.35;;;;;;;13.69;86.96;100795.78;1748541;82;21489;-75
2022/10/08 00:19:11;;;;;;;26.10;19.98;;;;;;;13.72;86.96;100794.79;1743333;82;21540;-76
2022/10/08 00:21:42;;;;;;;27.93;19.37;;;;;;;13.75;86.96;100791.55;1747662;82;21116;-76
2022/10/08 00:24:14;;;;;;;27.58;19.55;;;;;;;13.78;87.03;100786.14;1745782;82;21054;-76
2022/10/08 00:26:42;;;;;;;25.32;18.52;;;;;;;13.78;87.00;100780.88;1749103;82;21579;-75
2022/10/08 00:29:12;;;;;;;29.23;19.20;;;;;;;13.80;87.02;100785.63;1743724;81;21567;-76
2022/10/08 00:31:42;;;;;;;24.80;18.23;;;;;;;13.83;87.08;100780.68;1737840;82;21325;-75
2022/10/08 00:34:11;;;;;;;;;;;;;;;13.84;87.11;100783.23;1754072;81;21161;-76
2022/10/08 00:36:40;;;;;;;24.47;18.40;;;;;;;13.86;87.29;100777.05;1748777;81;20232;-75
2022/10/08 00:39:13;;;;;;;23.00;18.80;;;;;;;13.88;87.14;100776.50;1750676;81;21027;-76
2022/10/08 00:41:44;;;;;;;25.35;19.10;;;;;;;13.88;87.07;100772.55;1706365;84;21568;-75
2022/10/08 00:44:54;;;;;;;30.57;19.12;;;;;;;13.87;87.02;100771.70;1744684;82;21024;-75
2022/10/08 00:47:41;;;;;;;26.50;18.10;;;;;;;13.87;87.01;100766.90;1736974;82;23080;-75
2022/10/08 00:50:26;;;;;;;26.07;20.40;;;;;;;13.86;87.11;100763.88;1731831;82;20923;-75
2022/10/08 00:52:58;;;;;;;26.30;18.95;;;;;;;13.84;87.17;100758.67;1739103;82;21087;-75
2022/10/08 00:55:26;;;;;;;27.20;18.67;;;;;;;13.83;87.20;100757.81;1727802;82;21038;-75
2022/10/08 00:58:00;;;;;;;27.17;19.07;;;;;;;13.82;87.29;100755.23;1742256;82;20981;-75
2022/10/08 01:00:27;;;;;;;30.15;19.77;;;;;;;13.84;87.40;100758.67;1730376;82;21131;-75
2022/10/08 01:02:55;;;;;;;32.23;19.20;;;;;;;13.86;87.37;100751.55;1744372;82;21028;-75
2022/10/08 01:05:45;;;;;;;26.77;19.10;;;;;;;13.84;87.27;100748.13;1737796;82;20995;-76
2022/10/08 01:08:30;;;;;;;25.88;19.80;;;;;;;13.84;87.36;100744.17;1732438;82;21014;-75
2022/10/08 01:11:21;;;;;;;24.90;19.60;;;;;;;13.83;87.36;100744.64;1734175;82;21034;-75
2022/10/08 01:14:08;;;;;;;26.87;20.40;;;;;;;13.81;87.35;100735.09;1740438;82;21191;-75
2022/10/08 01:16:56;;;;;;;27.93;20.30;;;;;;;13.80;87.45;100735.56;1734529;82;21050;-75
2022/10/08 01:19:58;;;;;;;27.85;21.45;;;;;;;13.78;87.41;100734.77;1734338;82;21050;-74
2022/10/08 01:22:45;;;;;;;27.82;20.37;;;;;;;13.76;87.34;100732.66;1739990;82;21533;-75
2022/10/08 01:25:51;;;;;;;29.05;20.92;;;;;;;13.70;87.46;100721.09;1736076;82;20987;-75
2022/10/08 01:28:47;;;;;;;25.68;19.92;;;;;;;13.68;87.49;100721.61;1749642;81;21172;-75
2022/10/08 01:31:18;;;;;;;27.62;20.65;;;;;;;13.66;87.51;100719.96;1730864;81;20999;-75
2022/10/08 01:33:51;;;;;;;27.60;19.95;;;;;;;13.63;87.66;100719.63;1734802;81;21035;-76
2022/10/08 01:36:20;;;;;;;26.35;20.23;;;;;;;13.59;87.67;100718.92;1744514;81;21008;-76
2022/10/08 01:38:57;;;;;;;24.80;19.93;;;;;;;13.55;87.71;100712.09;1745250;81;21500;-75
2022/10/08 01:41:28;;;;;;;24.90;19.45;;;;;;;13.55;87.71;100709.91;1749715;81;20996;-76
2022/10/08 01:44:06;;;;;;;26.85;19.60;;;;;;;13.52;87.83;100706.97;1750045;81;21027;-76
2022/10/08 01:46:37;;;;;;;23.52;18.73;;;;;;;13.53;88.05;100709.14;1750085;81;21035;-75
2022/10/08 01:49:09;;;;;;;20.55;17.07;;;;;;;13.53;88.11;100710.45;1750190;81;21034;-76
2022/10/08 01:52:03;;;;;;;25.17;18.82;;;;;;;13.53;88.16;100713.94;1749893;81;21039;-76
2022/10/08 01:54:32;;;;;;;24.82;19.37;;;;;;;13.56;88.27;100712.48;1747205;81;22002;-76
2022/10/08 01:57:01;;;;;;;28.55;20.40;;;;;;;13.56;88.33;100717.75;1750383;81;21031;-76
2022/10/08 01:59:43;;;;;;;24.35;19.55;;;;;;;13.57;88.42;100708.91;1724758;81;21011;-76
2022/10/08 02:02:18;;;;;;;26.40;17.95;;;;;;;13.61;88.57;100701.75;1751862;81;21000;-76
2022/10/08 02:04:47;;;;;;;31.35;19.87;;;;;;;13.64;88.63;100707.34;1751981;81;21468;-75
2022/10/08 02:07:25;;;;;;;26.30;19.40;;;;;;;13.66;88.61;100707.64;1727894;81;21104;-76
2022/10/08 02:10:19;;;;;;;28.83;20.08;;;;;;;13.66;88.61;100698.42;1747417;81;21038;-75
2022/10/08 02:12:46;;;;;;;27.70;18.90;;;;;;;13.70;88.66;100695.21;1749479;81;21052;-75
2022/10/08 02:15:26;;;;;;;25.15;19.62;;;;;;;13.72;88.63;100701.27;1749871;81;21083;-76
2022/10/08 02:17:57;;;;;;;;;;;;;;;13.72;88.67;100692.05;1754216;81;21063;-75
2022/10/08 02:20:49;;;;;;;28.85;19.55;;;;;;;13.71;88.84;100695.59;1752676;81;21130;-76
2022/10/08 02:23:30;;;;;;;26.80;20.62;;;;;;;13.70;88.64;100696.06;1746770;81;21458;-75
2022/10/08 02:26:01;;;;;;;28.12;20.55;;;;;;;13.69;88.61;100692.16;1721030;83;21083;-76
2022/10/08 02:28:55;;;;;;;27.95;20.95;;;;;;;13.67;88.61;100693.56;1736486;82;21047;-76
2022/10/08 02:31:51;;;;;;;25.88;20.75;;;;;;;13.65;88.66;100689.29;1730009;82;21022;-76
2022/10/08 02:34:29;;;;;;;25.17;20.60;;;;;;;13.64;88.69;100692.86;1737815;82;21943;-76
2022/10/08 02:37:13;;;;;;;27.50;20.40;;;;;;;13.59;88.73;100690.42;1735188;82;21043;-75
2022/10/08 02:39:45;;;;;;;31.27;20.92;;;;;;;13.57;88.76;100694.89;1728751;82;22339;-76
2022/10/08 02:42:17;;;;;;;28.73;20.57;;;;;;;13.56;88.75;100698.47;1702340;84;21090;-76
2022/10/08 02:44:56;;;;;;;31.42;20.97;;;;;;;13.53;88.78;100692.87;1731390;82;21022;-76
2022/10/08 02:47:28;;;;;;;29.30;21.33;;;;;;;13.53;88.83;100690.23;1734770;82;22034;-76
2022/10/08 02:50:01;;;;;;;25.40;20.12;;;;;;;13.50;88.89;100688.20;1735437;82;20934;-76
2022/10/08 02:52:35;;;;;;;25.70;18.52;;;;;;;13.47;88.83;100688.31;1735931;82;21034;-76
2022/10/08 02:55:08;;;;;;;26.48;18.55;;;;;;;13.44;88.87;100694.60;1735557;82;20991;-76
2022/10/08 02:57:45;;;;;;;26.00;18.70;;;;;;;13.41;88.83;100688.59;1731605;82;21057;-75
2022/10/08 03:00:12;;;;;;;25.17;18.75;;;;;;;13.35;88.86;100691.88;1735676;82;21133;-75
2022/10/08 03:03:04;;;;;;;28.95;19.25;;;;;;;13.32;88.92;100688.08;1735888;82;21002;-77
2022/10/08 03:05:32;;;;;;;23.20;18.37;;;;;;;13.30;88.99;100691.26;1728960;82;21078;-76
2022/10/08 03:07:59;;;;;;;26.57;18.30;;;;;;;13.27;89.07;100688.73;1735639;82;21259;-76
2022/10/08 03:10:29;;;;;;;24.12;18.60;;;;;;;13.26;89.10;100692.77;1726838;82;20990;-75
2022/10/08 03:13:03;;;;;;;22.93;17.62;;;;;;;13.22;89.04;100691.14;1735698;82;21384;-76
2022/10/08 03:15:32;;;;;;;24.92;18.77;;;;;;;13.20;89.23;100689.06;1735643;82;21262;-77
2022/10/08 03:18:03;;;;;;;25.82;19.65;;;;;;;13.18;89.15;100686.48;1735903;82;21535;-76
2022/10/08 03:20:31;;;;;;;23.18;17.80;;;;;;;13.15;89.25;100689.24;1735498;82;21069;-76
2022/10/08 03:23:00;;;;;;;25.20;18.73;;;;;;;13.13;89.28;100689.30;1735767;82;21514;-76
2022/10/08 03:25:28;;;;;;;26.15;18.07;;;;;;;13.10;89.24;100688.11;1735008;82;27522;-76
2022/10/08 03:27:55;;;;;;;26.62;20.68;;;;;;;13.06;89.21;100681.29;1730254;82;20999;-77
2022/10/08 03:30:22;;;;;;;26.40;20.32;;;;;;;13.02;89.28;100682.32;1735439;82;21037;-76
2022/10/08 03:32:49;;;;;;;27.75;19.85;;;;;;;13.00;89.37;100679.36;1733816;82;21014;-76
2022/10/08 03:35:16;;;;;;;27.20;19.67;;;;;;;12.95;89.12;100684.37;1735462;82;21282;-75
2022/10/08 03:37:43;;;;;;;24.75;18.82;;;;;;;12.91;89.32;100678.86;1734927;82;21121;-76
2022/10/08 03:40:10;;;;;;;23.92;19.50;;;;;;;12.86;89.01;100679.98;1735278;82;20986;-75
2022/10/08 03:42:37;;;;;;;24.20;18.80;;;;;;;12.80;88.87;100685.47;1734773;82;21494;-76
2022/10/08 03:45:05;;;;;;;26.55;19.92;;;;;;;12.73;89.20;100675.67;1735730;82;20999;-76
2022/10/08 03:47:32;;;;;;;27.20;20.12;;;;;;;12.70;89.39;100675.34;1735515;82;20994;-75
2022/10/08 03:49:59;;;;;;;26.97;20.88;;;;;;;12.64;89.19;100669.03;1735708;82;21921;-76
2022/10/08 03:52:26;;;;;;;25.08;18.80;;;;;;;12.58;89.15;100667.97;1731576;82;21010;-76
2022/10/08 03:54:53;;;;;;;25.60;19.77;;;;;;;12.56;89.46;100665.00;1732452;82;20946;-76
2022/10/08 03:57:20;;;;;;;28.10;21.10;;;;;;;12.49;89.21;100667.86;1735758;82;20994;-76
2022/10/08 03:59:47;;;;;;;26.33;20.82;;;;;;;12.45;89.47;100661.03;1727482;82;21307;-76
2022/10/08 04:02:14;;;;;;;26.77;20.62;;;;;;;12.37;89.07;100660.95;1735422;82;21520;-76
2022/10/08 04:04:41;;;;;;;28.15;19.40;;;;;;;12.28;89.27;100658.23;1733734;82;21108;-75
2022/10/08 04:07:08;;;;;;;25.48;19.50;;;;;;;12.22;89.42;100661.08;1734468;82;20971;-76
2022/10/08 04:09:35;;;;;;;27.40;20.45;;;;;;;12.17;89.57;100667.85;1732954;82;21010;-76
2022/10/08 04:12:02;;;;;;;24.82;19.45;;;;;;;12.13;89.62;100666.70;1731908;82;21039;-75
2022/10/08 04:14:29;;;;;;;25.23;18.80;;;;;;;12.08;89.89;100668.19;1730003;82;21168;-76
2022/10/08 04:16:56;;;;;;;26.50;20.45;;;;;;;12.04;89.69;100666.61;1735494;82;21545;-75
2022/10/08 04:19:23;;;;;;;25.15;19.98;;;;;;;11.98;89.76;100673.42;1735103;82;21525;-76
2022/10/08 04:21:51;;;;;;;25.45;19.92;;;;;;;11.93;89.60;100675.37;1706294;82;21038;-74
2022/10/08 04:24:18;;;;;;;25.43;19.90;;;;;;;11.87;89.84;100672.52;1707348;82;21014;-75
2022/10/08 04:26:46;;;;;;;24.47;19.60;;;;;;;11.84;89.99;100672.61;1705773;82;21194;-76
2022/10/08 04:29:13;;;;;;;26.07;20.65;;;;;;;11.84;90.47;100669.52;1707453;82;21023;-74
2022/10/08 04:31:40;;;;;;;25.45;18.48;;;;;;;11.86;90.55;100669.94;1724366;82;21058;-76
2022/10/08 04:34:10;;;;;;;28.17;18.73;;;;;;;11.78;89.64;100665.81;1705760;82;21026;-75
2022/10/08 04:36:39;;;;;;;26.15;18.00;;;;;;;11.71;89.66;100659.06;1705978;82;21081;-76
2022/10/08 04:39:06;;;;;;;25.43;18.00;;;;;;;11.66;89.75;100655.75;1705709;82;21832;-76
2022/10/08 04:41:33;;;;;;;23.25;17.62;;;;;;;11.59;89.47;100661.70;1716080;82;21046;-76
2022/10/08 04:44:00;;;;;;;22.93;17.30;;;;;;;11.53;89.46;100665.02;1714185;82;21056;-76
2022/10/08 04:46:27;;;;;;;22.67;18.67;;;;;;;11.50;89.62;100665.98;1675503;82;21107;-76
2022/10/08 04:48:55;;;;;;;23.47;18.80;;;;;;;11.46;90.12;100664.37;1680282;82;21035;-76
2022/10/08 04:51:25;;;;;;;26.55;19.45;;;;;;;11.52;90.72;100668.54;1723359;82;21931;-76
2022/10/08 04:53:54;;;;;;;26.07;21.70;;;;;;;11.51;90.82;100666.38;1687641;82;21039;-75
2022/10/08 04:56:25;;;;;;;30.25;22.22;;;;;;;11.58;91.82;100663.05;1693381;82;20992;-75
2022/10/08 04:58:56;;;;;;;34.95;23.38;;;;;;;11.65;92.22;100657.14;1689691;82;21056;-74
2022/10/08 05:01:24;;;;;;;30.53;23.70;;;;;;;11.70;92.48;100661.77;1675909;82;21067;-75
2022/10/08 05:03:54;;;;;;;29.45;25.35;;;;;;;11.77;92.74;100660.14;1675547;82;21134;-76
2022/10/08 05:06:26;;;;;;;29.30;24.20;;;;;;;11.83;92.93;100663.87;1709260;82;21561;-76
2022/10/08 05:08:54;;;;;;;33.00;26.00;;;;;;;11.87;92.88;100654.13;1705477;82;21038;-75
2022/10/08 05:11:26;;;;;;;32.17;25.70;;;;;;;11.91;93.03;100658.34;1689850;82;21067;-75
2022/10/08 05:13:55;;;;;;;32.13;25.17;;;;;;;11.94;93.00;100652.96;1695695;82;21530;-75
2022/10/08 05:16:24;;;;;;;30.93;25.07;;;;;;;11.96;93.10;100645.88;1709659;82;21117;-75
2022/10/08 05:18:51;;;;;;;33.45;25.48;;;;;;;11.99;93.16;100644.91;1675583;82;21115;-76
2022/10/08 05:21:22;;;;;;;30.05;25.05;;;;;;;12.02;93.21;100650.05;1682198;82;21646;-75
2022/10/08 05:24:00;;;;;;;31.43;25.67;;;;;;;12.04;93.22;100649.07;1700718;82;21032;-76
2022/10/08 05:26:32;;;;;;;30.52;24.57;;;;;;;12.09;93.24;100652.84;1675829;82;21084;-76
2022/10/08 05:29:00;;;;;;;30.15;23.83;;;;;;;12.10;93.19;100658.48;1699123;82;21144;-75
2022/10/08 05:31:30;;;;;;;30.72;24.27;;;;;;;12.12;93.16;100655.81;1686134;82;21520;-76
2022/10/08 05:33:59;;;;;;;29.23;23.30;;;;;;;12.13;93.08;100662.77;1713761;81;21062;-75
2022/10/08 05:36:31;;;;;;;29.55;23.18;;;;;;;12.13;93.12;100653.11;1738217;81;21491;-79
2022/10/08 05:39:03;;;;;;;28.25;23.90;;;;;;;12.14;93.10;100656.58;1745893;81;21500;-76
2022/10/08 05:41:34;;;;;;;25.75;22.07;;;;;;;12.14;93.14;100664.03;1720835;82;21138;-78
2022/10/08 05:44:02;;;;;;;31.05;23.00;;;;;;;12.16;93.17;100657.39;1685959;82;21065;-74
2022/10/08 05:46:31;;;;;;;26.57;21.93;;;;;;;12.18;93.35;100655.56;1719675;81;21054;-73
2022/10/08 05:49:01;;;;;;;27.13;21.75;;;;;;;12.22;93.32;100655.82;1721437;82;21040;-73
2022/10/08 05:51:29;;;;;;;25.15;21.45;;;;;;;12.25;93.23;100660.98;1724379;82;22224;-74
2022/10/08 05:53:59;;;;;;;26.80;21.97;;;;;;;12.31;93.34;100659.89;1695829;84;21187;-75
2022/10/08 05:56:28;;;;;;;28.57;21.87;;;;;;;12.35;93.32;100664.94;1679717;84;21526;-73
2022/10/08 05:58:55;;;;;;;24.07;20.80;;;;;;;12.41;93.31;100679.14;1716390;82;21043;-73
2022/10/08 06:01:26;;;;;;;26.70;20.57;;;;;;;12.47;93.48;100672.78;1712336;82;21586;-73
2022/10/08 06:04:04;;;;;;;24.25;20.45;;;;;;;12.52;93.50;100681.34;1717404;82;21118;-74
2022/10/08 06:06:33;;;;;;;24.23;19.98;;;;;;;12.57;93.49;100675.91;1713716;82;21143;-73
2022/10/08 06:09:01;;;;;;;25.37;20.80;;;;;;;12.62;93.56;100674.80;1713380;82;21046;-73
2022/10/08 06:11:31;;;;;;;21.45;19.07;;;;;;;12.67;93.48;100668.05;1712002;82;21039;-73
2022/10/08 06:13:59;;;;;;;23.65;19.15;;;;;;;12.74;93.51;100674.74;1726134;82;21072;-73
2022/10/08 06:16:28;;;;;;;23.38;19.12;;;;;;;12.84;93.46;100674.77;1726056;82;21036;-73
2022/10/08 06:18:56;;;;;;;24.35;18.67;;;;;;;12.94;93.43;100673.90;1726448;82;21146;-73
2022/10/08 06:21:26;;;;;;;19.95;16.87;;;;;;;13.01;93.20;100663.98;1693480;83;22275;-73
2022/10/08 06:23:58;;;;;;;24.57;17.65;;;;;;;13.05;92.82;100673.02;1712921;81;21027;-73
2022/10/08 06:26:32;;;;;;;21.77;18.23;;;;;;;13.08;92.81;100664.98;1717421;81;22227;-73
2022/10/08 06:28:59;;;;;;;22.17;18.70;;;;;;;13.15;92.83;100669.04;1714660;81;21263;-73
2022/10/08 06:31:27;;;;;;;22.25;18.27;;;;;;;13.19;92.86;100667.16;1710389;81;21338;-73
2022/10/08 06:33:57;;;;;;;19.90;17.57;;;;;;;13.24;92.87;100664.30;1711390;82;21065;-73
2022/10/08 06:36:27;;;;;;;19.17;17.20;;;;;;;13.27;92.87;100665.51;1711489;82;20966;-73
2022/10/08 06:38:57;;;;;;;21.68;18.25;;;;;;;13.29;92.76;100672.88;1709990;82;21074;-73
2022/10/08 06:41:29;;;;;;;20.17;17.37;;;;;;;13.28;92.70;100675.14;1711617;82;21035;-73
2022/10/08 06:43:55;;;;;;;21.27;17.62;;;;;;;13.29;92.76;100676.84;1716482;82;21132;-73
2022/10/08 06:46:22;;;;;;;23.25;18.07;;;;;;;13.31;92.76;100675.00;1708675;82;21595;-74
2022/10/08 06:48:49;;;;;;;24.52;18.48;;;;;;;13.32;92.71;100680.17;1713185;82;21039;-73
2022/10/08 06:51:18;;;;;;;22.07;19.12;;;;;;;13.36;92.68;100669.92;1710273;82;21047;-74
2022/10/08 06:53:53;;;;;;;21.25;18.48;;;;;;;13.46;92.88;100670.82;1709731;82;21511;-73
2022/10/08 06:56:20;;;;;;;19.75;17.60;;;;;;;13.55;92.90;100675.66;1709428;82;21116;-73
2022/10/08 06:58:48;;;;;;;21.57;17.50;;;;;;;13.63;92.89;100673.54;1710900;82;22419;-73
2022/10/08 07:01:19;;;;;;;19.82;17.73;;;;;;;13.69;92.61;100677.23;1712742;82;21043;-73
2022/10/08 07:03:54;;;;;;;20.30;18.20;;;;;;;13.76;92.58;100673.84;1713406;82;21008;-73
2022/10/08 07:06:23;;;;;;;20.92;17.17;;;;;;;13.80;92.23;100680.23;1725221;82;21082;-73
2022/10/08 07:08:55;;;;;;;21.80;18.05;;;;;;;13.80;92.08;100682.88;1726337;82;21127;-73
2022/10/08 07:11:24;;;;;;;21.10;18.50;;;;;;;13.80;91.96;100682.88;1725791;82;21098;-73
2022/10/08 07:13:51;;;;;;;20.97;17.52;;;;;;;13.81;91.92;100681.08;1726280;82;21507;-73
2022/10/08 07:16:22;;;;;;;22.25;17.10;;;;;;;13.79;91.84;100676.34;1726646;82;21010;-74
2022/10/08 07:18:51;;;;;;;22.50;17.35;;;;;;;13.79;91.69;100677.19;1726591;82;21026;-73
2022/10/08 07:21:21;;;;;;;20.77;18.12;;;;;;;13.81;91.77;100679.77;1725317;82;21093;-73
2022/10/08 07:23:48;;;;;;;19.23;17.23;;;;;;;13.81;91.48;100678.45;1725880;82;21122;-73
2022/10/08 07:26:22;;;;;;;23.70;18.17;;;;;;;13.78;91.43;100679.91;1715261;81;21050;-73
2022/10/08 07:28:56;;;;;;;23.02;18.60;;;;;;;13.79;91.50;100674.55;1719399;81;21075;-72
2022/10/08 07:31:28;;;;;;;23.07;19.07;;;;;;;13.81;91.34;100671.86;1721363;81;22226;-72
2022/10/08 07:33:58;;;;;;;20.20;17.60;;;;;;;13.84;91.37;100673.88;1716975;81;21138;-74
2022/10/08 07:36:27;;;;;;;20.15;17.10;;;;;;;13.89;91.46;100677.63;1702809;82;21031;-73
2022/10/08 07:39:07;;;;;;;19.82;17.25;;;;;;;13.98;91.59;100677.20;1706076;81;21098;-72
2022/10/08 07:41:34;;;;;;;20.62;17.48;;;;;;;14.05;91.48;100681.27;1702415;82;21058;-73
2022/10/08 07:44:03;;;;;;;21.68;18.05;;;;;;;14.13;91.31;100685.30;1705131;82;22162;-71
2022/10/08 07:46:33;;;;;;;20.85;17.65;;;;;;;14.19;91.31;100678.41;1706778;81;21718;-71
2022/10/08 07:49:02;;;;;;;19.92;17.80;;;;;;;14.26;91.26;100672.78;1707104;82;21075;-73
2022/10/08 07:51:30;;;;;;;18.25;16.25;;;;;;;14.36;91.20;100678.48;1709806;81;21034;-73
2022/10/08 07:54:02;;;;;;;20.77;16.77;;;;;;;14.47;91.03;100676.18;1701935;82;21042;-74
2022/10/08 07:56:30;;;;;;;17.95;16.15;;;;;;;14.56;90.83;100678.02;1712959;81;21035;-74
2022/10/08 07:59:05;;;;;;;19.10;16.05;;;;;;;14.64;90.59;100678.48;1709923;81;22040;-74
2022/10/08 08:01:34;;;;;;;18.95;15.65;;;;;;;14.72;90.31;100678.97;1702568;82;21054;-74
2022/10/08 08:04:07;;;;;;;18.27;14.68;;;;;;;14.81;90.37;100675.01;1718533;81;21004;-76
2022/10/08 08:06:41;;;;;;;16.80;14.23;;;;;;;14.92;90.05;100675.32;1715913;81;21050;-74
2022/10/08 08:09:10;;;;;;;15.05;13.25;;;;;;;15.03;89.96;100678.73;1702982;82;21050;-73
2022/10/08 08:11:38;;;;;;;16.37;12.75;;;;;;;15.13;89.76;100685.23;1706123;81;21151;-72
2022/10/08 08:14:06;;;;;;;18.40;14.20;;;;;;;15.22;89.46;100688.73;1702913;82;21078;-75
2022/10/08 08:16:33;;;;;;;16.17;12.73;;;;;;;15.28;89.15;100687.09;1721878;81;21031;-72
2022/10/08 08:19:01;;;;;;;16.48;13.20;;;;;;;15.37;89.05;100687.08;1706487;81;21014;-75
2022/10/08 08:21:32;;;;;;;17.07;12.23;;;;;;;15.45;88.85;100693.28;1703903;82;21054;-73
2022/10/08 08:24:07;;;;;;;14.75;12.37;;;;;;;15.54;88.54;100684.39;1715255;81;21037;-76
2022/10/08 08:26:36;;;;;;;17.23;12.33;;;;;;;15.66;88.33;100682.02;1712089;81;21604;-74
2022/10/08 08:29:08;;;;;;;15.45;11.57;;;;;;;15.77;88.00;100679.72;1720484;81;22180;-74
2022/10/08 08:31:40;;;;;;;12.70;11.28;;;;;;;15.89;87.97;100673.75;1703926;81;22285;-74
2022/10/08 08:34:11;;;;;;;15.43;10.32;;;;;;;16.03;87.79;100672.99;1680272;83;21038;-74
2022/10/08 08:36:43;;;;;;;13.15;10.08;;;;;;;16.26;87.21;100676.98;1681015;83;21074;-72
2022/10/08 08:39:21;;;;;;;16.30;10.00;;;;;;;16.26;87.21;100676.98;1691597;83;21042;-73
2022/10/08 08:42:16;;;;;;;15.58;10.08;;;;;;;16.50;86.96;100685.34;1700878;84;21486;-75
2022/10/08 08:44:50;;;;;;;13.78;9.83;;;;;;;16.50;86.96;100685.34;1692552;83;21034;-72
2022/10/08 08:47:22;;;;;;;12.90;10.25;;;;;;;16.62;86.51;100686.42;1690640;83;21061;-73
2022/10/08 08:49:56;;;;;;;14.73;10.18;;;;;;;16.70;86.00;100692.97;1694329;83;21166;-73
2022/10/08 08:52:28;;;;;;;15.68;9.78;;;;;;;16.74;85.55;100692.34;1668363;85;21075;-74
2022/10/08 08:54:55;;;;;;;13.78;10.10;;;;;;;16.75;85.45;100694.52;1697749;83;21098;-75
2022/10/08 08:57:46;;;;;;;12.18;9.43;;;;;;;16.73;85.33;100698.55;1680684;83;21050;-74
2022/10/08 09:00:21;;;;;;;12.78;10.23;;;;;;;16.79;85.41;100698.23;1700216;83;21057;-74
2022/10/08 09:03:29;;;;;;;14.30;9.95;;;;;;;16.82;84.90;100698.08;1700818;83;21540;-71
2022/10/08 09:06:00;;;;;;;13.95;10.48;;;;;;;16.77;84.66;100700.61;1697596;83;21054;-72
2022/10/08 09:08:49;;;;;;;15.03;10.08;;;;;;;16.76;84.55;100701.50;1699456;83;21601;-71
2022/10/08 09:11:20;;;;;;;12.95;10.23;;;;;;;16.77;84.66;100696.16;1702440;83;21034;-72
2022/10/08 09:14:13;;;;;;;13.28;9.35;;;;;;;16.79;84.58;100701.35;1700174;83;21087;-71
2022/10/08 09:16:40;;;;;;;12.85;8.70;;;;;;;16.78;84.55;100704.95;1700300;83;22022;-73
2022/10/08 09:19:08;;;;;;;12.82;8.70;;;;;;;16.79;84.67;100693.41;1700908;83;21097;-71
2022/10/08 09:21:35;;;;;;;9.30;7.92;;;;;;;16.89;84.86;100699.88;1698963;83;21531;-71
2022/10/08 09:24:03;;;;;;;12.35;8.18;;;;;;;17.01;85.17;100701.80;1701201;84;21292;-72
2022/10/08 09:26:34;;;;;;;11.55;8.08;;;;;;;17.12;84.48;100705.14;1701972;83;21062;-72
2022/10/08 09:29:04;;;;;;;10.95;7.80;;;;;;;17.24;84.35;100708.88;1702466;84;21799;-72
2022/10/08 09:31:46;;;;;;;14.18;7.47;;;;;;;17.33;84.28;100713.12;1692791;83;21078;-72
2022/10/08 09:34:18;;;;;;;10.68;6.95;;;;;;;17.50;84.19;100710.78;1709440;82;21031;-71
2022/10/08 09:37:02;;;;;;;8.83;6.60;;;;;;;17.63;83.71;100714.87;1704585;82;21585;-71
2022/10/08 09:39:33;;;;;;;13.75;6.97;;;;;;;17.66;83.33;100708.05;1712815;82;21469;-72
2022/10/08 09:42:16;;;;;;;10.75;6.75;;;;;;;17.71;83.05;100715.70;1716943;82;21145;-74
2022/10/08 09:44:57;;;;;;;9.90;6.58;;;;;;;17.72;82.69;100721.40;1749091;82;21019;-73
2022/10/08 09:47:26;;;;;;;12.40;6.55;;;;;;;17.69;82.11;100715.81;1738503;82;21009;-75
2022/10/08 09:50:05;;;;;;;9.98;6.80;;;;;;;17.68;81.94;100715.45;1720964;82;20996;-74
2022/10/08 09:52:36;;;;;;;11.05;6.87;;;;;;;17.66;81.62;100717.81;1708022;82;21410;-75
2022/10/08 09:55:20;;;;;;;9.58;7.05;;;;;;;17.62;81.57;100719.77;1718460;82;21570;-73
2022/10/08 09:57:59;;;;;;;9.58;6.17;;;;;;;17.58;81.23;100726.23;1745995;82;21035;-74
2022/10/08 10:00:34;;;;;;;9.95;6.90;;;;;;;17.49;81.02;100721.02;1711723;82;21037;-75
2022/10/08 10:03:05;;;;;;;10.25;6.50;;;;;;;17.52;81.03;100718.17;1709491;82;21106;-74
2022/10/08 10:05:35;;;;;;;9.48;6.55;;;;;;;17.57;81.18;100717.42;1748953;82;22047;-75
2022/10/08 10:08:04;;;;;;;10.88;6.58;;;;;;;17.61;80.92;100717.60;1749199;82;21135;-76
2022/10/08 10:10:39;;;;;;;10.88;6.50;;;;;;;17.62;80.75;100707.84;1748949;82;20996;-75
2022/10/08 10:13:33;;;;;;;11.05;6.40;;;;;;;17.64;80.72;100708.61;1749271;82;21298;-75
2022/10/08 10:16:13;;;;;;;11.78;6.62;;;;;;;17.68;80.62;100711.47;1746227;82;20992;-76
2022/10/08 10:18:51;;;;;;;9.60;6.62;;;;;;;17.69;80.42;100701.23;1716979;82;21000;-75
2022/10/08 10:21:30;;;;;;;9.05;6.83;;;;;;;17.71;80.33;100702.00;1700088;82;21493;-74
2022/10/08 10:24:29;;;;;;;12.05;6.72;;;;;;;17.73;80.22;100699.23;1716501;82;21011;-74
2022/10/08 10:27:00;;;;;;;;;;;;;;;17.74;80.23;100709.76;1751649;82;21023;-75
2022/10/08 10:29:30;;;;;;;;;;;;;;;17.77;79.78;100712.70;1751282;82;20542;-74
2022/10/08 10:32:07;;;;;;;9.80;6.53;;;;;;;17.80;79.91;100709.41;1749169;81;20485;-75
2022/10/08 10:34:38;;;;;;;15.58;7.60;;;;;;;17.86;79.85;100711.30;1735574;81;21098;-75
2022/10/08 10:37:11;;;;;;;15.38;7.35;;;;;;;17.87;79.75;100708.53;1695542;82;21040;-75
2022/10/08 10:39:56;;;;;;;13.15;7.47;;;;;;;17.83;79.49;100707.03;1715187;81;21441;-75
2022/10/08 10:42:34;;;;;;;13.30;7.65;;;;;;;17.77;79.10;100700.77;1716331;82;21057;-74
2022/10/08 10:45:20;;;;;;;11.33;7.40;;;;;;;17.72;79.12;100714.77;1677311;84;21257;-74
2022/10/08 10:47:52;;;;;;;13.50;6.87;;;;;;;17.72;79.03;100704.17;1709893;82;21961;-75
2022/10/08 10:50:24;;;;;;;15.80;8.05;;;;;;;17.67;78.85;100707.58;1728789;81;21047;-74
2022/10/08 10:52:57;;;;;;;11.93;6.33;;;;;;;17.62;78.91;100699.89;1752926;81;21023;-75
2022/10/08 10:55:35;;;;;;;10.63;6.67;;;;;;;17.66;79.15;100706.73;1753831;81;20976;-76
2022/10/08 10:58:29;;;;;;;9.73;5.65;;;;;;;17.71;79.16;100697.14;1753555;81;21647;-76
2022/10/08 11:01:16;;;;;;;9.93;6.10;;;;;;;17.76;78.99;100690.64;1684123;81;21084;-76
2022/10/08 11:04:01;;;;;;;9.08;6.25;;;;;;;17.85;78.90;100698.52;1727920;82;21016;-76
2022/10/08 11:06:55;;;;;;;9.53;6.37;;;;;;;17.94;78.86;100693.95;1710795;82;21087;-76
2022/10/08 11:09:33;;;;;;;9.35;6.45;;;;;;;18.00;78.58;100688.73;1691207;82;20999;-75
2022/10/08 11:12:24;;;;;;;8.15;5.60;;;;;;;18.08;78.38;100686.45;1675671;82;21024;-76
2022/10/08 11:15:19;;;;;;;12.03;5.55;;;;;;;18.11;77.94;100692.03;1689047;82;21117;-75
2022/10/08 11:18:15;;;;;;;11.95;5.67;;;;;;;18.14;77.76;100689.19;1723209;82;20991;-76
2022/10/08 11:21:02;;;;;;;9.00;5.53;;;;;;;18.24;77.69;100687.17;1682286;84;21025;-75
2022/10/08 11:24:02;;;;;;;8.80;5.53;;;;;;;18.40;77.56;100687.48;1700808;82;21051;-75
2022/10/08 11:26:40;;;;;;;8.78;5.53;;;;;;;18.49;77.24;100689.08;1716565;82;21273;-75
2022/10/08 11:29:27;;;;;;;9.13;5.58;;;;;;;18.45;76.78;100682.73;1723238;82;21111;-75
2022/10/08 11:31:56;;;;;;;8.95;5.78;;;;;;;18.38;76.61;100690.25;1709004;82;21067;-75
2022/10/08 11:34:31;;;;;;;10.10;5.70;;;;;;;18.26;76.15;100681.75;1672056;83;21044;-75
2022/10/08 11:37:07;;;;;;;8.83;5.62;;;;;;;18.12;76.06;100681.79;1672045;83;21021;-75
2022/10/08 11:40:16;;;;;;;9.65;5.45;;;;;;;18.00;76.20;100684.28;1672373;83;21021;-75
2022/10/08 11:43:01;;;;;;;10.88;5.53;;;;;;;17.96;76.32;100679.28;1690066;83;21812;-76